Strona główna
Zdjęcia satelitarne 15-dni prognozyKlimatMeteorologia morska Cyklony Błyskawica LotniskoFAQ Gazetka O
Pogoda : Europa Afryka Ameryka Północna Ameryka Południowa Azja Australia-Oceania Inny
Języki Kontakt

Katowice, Polska

Pyrzowice

Szerokość geograficzna: 50-28-27N, Długość geograficzna: 019-04-48E, wysokość: 284 m


METAR: EPKT 232030Z 10008KT 9000 NSC 01/M00 Q1029
TAF: EPKT 232030Z 2321/2406 11008KT 9999 SCT035 TEMPO 2323/2406 4000 BR BKN012

czas: 21:39 (20:39 UTC)

Aktualna obserwacja pogody

Raport powstał 9 minut temu, godzina 20:30 UTC
Wiatr 8 kt od wschód
Temperatura 1°C
Wilgotność 93%
Ciśnienie 1029 hPa
Widzialność: 9000 m

Jednostka miary

Prognoza

Raport powstał 9 minut temu, godzina 20:30 UTC
Prognoza ważna od 23 godzina 21 UTC do 24 godzina 06 UTC
Wiatr 8 kt od wschodnio-południowy wschód
Widzialność 10 km lub więcej
Rozproszone chmury na wysokości 3500 ft
Przejściowo
od 23 godzina 23 UTC do 24 godzina 06 UTC
Widzialność: 4000 m
Przerywane chmury na wysokości 1200 ft
zamglenie
Informacje na tej stronie internetowej podlegają klauzuli o wyłączeniu odpowiedzialności
Pogoda : Europa Afryka Ameryka Północna Ameryka Południowa Azja Australia-Oceania Inny
Zdjęcia satelitarne 15-dni prognozyKlimatMeteorologia morska Cyklony Błyskawica LotniskoFAQ Języki Kontakt Gazetka O